KBED

Laurence G Hanscom Field Airport

Bedford, Massachusetts, USA
METAR KBED 191956Z 31012G19KT 10SM FEW250 27/11 A2976 RMK AO2 SLP088 T02720111
Observed Flight Rules
Jun-19 @ 19:56 UTC (24 minutes ago) Visual Flight Rules
Wind Visibility Clouds
310° at 12 knots
 Gusting to 19 knots
10 miles
  • Few at 25,000' AGL
Temperatures Readings
Current 27°C / 81°F
Dewpoint 11°C / 52°F
Humidity 37%
Altimeter 29.76" Hg
Pressure 1008.8 hPa
Elevation 50
METAR KBED 191956Z 31012G19KT 10SM FEW250 27/11 A2976 RMK AO2 SLP088 T02720111
Observed Flight Rules
Jun-19 @ 19:56 UTC
(24 minutes ago)
VFR
Wind Visibility
310° at 12 knots
 Gusting to 19 knots
10 miles
Clouds
  • Few at 25,000' AGL
Temperature Dewpoint
27°C / 81°F 11°C / 52°F
Humidity Altimeter Pressure
37% 29.76" Hg 1008.8 hPa